EW1620 Weather Reports


Display with metric or nautical units.
time (UTC)temp
F
wind
direction
speed
MPH
gust
MPH
rain 1hr
in
rain 24hr
in
rain mn
in
humidity
%
barometer
mb
20221210043039 82 238 2.0 7.0 0.00 0.00 0.00 32 1010.8
20221210040034 81 97 2.0 9.0 0.00 0.00 0.00 33 1011.4
20221210034531 81 198 2.0 9.0 0.00 0.00 0.00 33 1011.6
20221210033028 80 69 2.0 8.0 0.00 0.00 0.00 34 1011.9
20221210030015 79 190 3.0 6.0 0.00 0.00 0.00 35 1012.5
20221210024512 78 315 1.0 9.0 0.00 0.00 0.00 35 1012.7
20221210023007 77 136 1.0 6.0 0.00 0.00 0.00 37 1012.9
20221210020101 76 181 3.0 7.0 0.00 0.00 0.00 39 1013.3
20221210014604 74 246 1.0 8.0 0.00 0.00 0.00 41 1013.5
20221210013057 74 204 4.0 9.0 0.00 0.00 0.00 40 1013.9
20221210010103 72 161 2.0 5.0 0.00 0.00 0.00 43 1014.3
20221210004543 71 127 3.0 9.0 0.00 0.00 0.00 43 1014.8
20221210003036 70 123 2.0 6.0 0.00 0.00 0.00 44 1015.0
20221210000032 68 78 2.0 6.0 0.00 0.00 0.00 44 1015.4
20221209234535 67 51 2.0 4.0 0.00 0.00 0.00 44 1015.6
20221209233025 66 254 0.0 3.0 0.00 0.00 0.00 45 1015.8
20221209230024 63 98 1.0 4.0 0.00 0.00 0.00 48 1016.1
20221209224514 63 92 2.0 4.0 0.00 0.00 0.00 48 1016.4
20221209223009 62 252 0.0 3.0 0.00 0.00 0.00 57 1016.6
20221209220003 60 156 0.0 4.0 0.00 0.00 0.00 62 1017.1
20221209214607 58 41 1.0 3.0 0.00 0.00 0.00 68 1017.1
20221209213055 56 158 0.0 3.0 0.00 0.00 0.00 74 1017.1
20221209211651 54 86 0.0 2.0 0.00 0.00 0.00 83 1016.9
20221209210047 52 86 0.0 2.0 0.00 0.00 0.00 85 1017.0
20221209204549 50 350 0.0 1.0 0.00 0.00 0.00 89 1016.9
20221209203041 48 350 0.0 2.0 0.00 0.00 0.00 91 1016.8
20221209201632 44 281 0.0 0.0 0.00 0.00 0.00 90 1016.8
20221209200037 43 281 0.0 0.0 0.00 0.00 0.00 89 1016.8
20221209194541 42 340 0.0 0.0 0.00 0.00 0.00 86 1016.6
20221209193038 41 340 0.0 0.0 0.00 0.00 0.00 85 1016.5
20221209191630 42 331 0.0 0.0 0.00 0.00 0.00 85 1016.5
20221209190038 42 331 0.0 0.0 0.00 0.00 0.00 85 1016.5
20221209184523 42 331 0.0 0.0 0.00 0.00 0.00 85 1016.5
20221209183021 42 331 0.0 0.0 0.00 0.00 0.00 83 1016.4
20221209181620 42 331 0.0 0.0 0.00 0.00 0.00 83 1016.4
20221209180020 43 331 0.0 0.0 0.00 0.00 0.00 83 1016.1
20221209174514 43 331 0.0 0.0 0.00 0.00 0.00 83 1016.0
20221209173012 43 331 0.0 0.0 0.00 0.00 0.00 83 1015.9
20221209171624 43 331 0.0 0.0 0.00 0.00 0.00 82 1015.9
20221209170022 44 331 0.0 1.0 0.00 0.00 0.00 82 1016.1
20221209164524 44 331 0.0 2.0 0.00 0.00 0.00 82 1016.4
20221209163008 44 331 0.0 0.0 0.00 0.00 0.00 82 1016.6
20221209161609 45 331 0.0 1.0 0.00 0.00 0.00 81 1016.6
20221209160005 45 331 0.0 0.0 0.00 0.00 0.00 81 1016.6
20221209154502 45 331 0.0 0.0 0.00 0.00 0.00 81 1016.6
20221209153108 45 331 0.0 1.0 0.00 0.00 0.00 81 1016.6
20221209151558 46 327 1.0 3.0 0.00 0.00 0.00 80 1016.8
20221209150057 46 315 0.0 1.0 0.00 0.00 0.00 79 1016.8
20221209144551 46 315 0.0 0.0 0.00 0.00 0.00 79 1017.2
20221209143048 47 315 0.0 2.0 0.00 0.00 0.00 79 1017.3
20221209141555 47 314 0.0 3.0 0.00 0.00 0.00 77 1017.3
20221209140051 47 289 0.0 1.0 0.00 0.00 0.00 75 1017.4
20221209134546 47 289 0.0 2.0 0.00 0.00 0.00 74 1017.6
20221209133100 48 225 0.0 0.0 0.00 0.00 0.00 73 1017.5
20221209131542 49 225 0.0 0.0 0.00 0.00 0.00 72 1017.7
20221209130049 49 225 0.0 0.0 0.00 0.00 0.00 72 1017.8
20221209124537 49 225 0.0 1.0 0.00 0.00 0.00 72 1017.8
20221209123039 50 225 0.0 0.0 0.00 0.00 0.00 71 1018.0
20221209121539 51 225 0.0 0.0 0.00 0.00 0.00 70 1017.9
20221209120030 51 225 0.0 2.0 0.00 0.00 0.00 70 1018.0
20221209114529 51 225 0.0 1.0 0.00 0.00 0.00 68 1018.0
20221209113029 52 225 0.0 2.0 0.00 0.00 0.00 68 1018.0
20221209111530 52 225 0.0 2.0 0.00 0.00 0.00 67 1018.0
20221209110030 53 238 0.0 3.0 0.00 0.00 0.00 66 1018.1
20221209104532 54 219 1.0 2.0 0.00 0.00 0.00 65 1017.8
20221209103031 54 182 0.0 2.0 0.00 0.00 0.00 64 1017.7
20221209101534 55 169 0.0 4.0 0.00 0.00 0.00 63 1017.7
20221209100027 55 127 1.0 5.0 0.00 0.00 0.00 63 1017.7
20221209094527 56 182 2.0 7.0 0.00 0.00 0.00 63 1017.7
20221209093027 57 174 2.0 8.0 0.00 0.00 0.00 62 1017.7
20221209091527 58 156 3.0 7.0 0.00 0.00 0.00 60 1017.5
20221209090032 58 163 4.0 8.0 0.00 0.00 0.00 59 1017.3
20221209084527 59 147 5.0 10.0 0.00 0.00 0.00 58 1017.1
20221209083031 59 134 3.0 9.0 0.00 0.00 0.00 58 1016.9
20221209081527 60 161 5.0 12.0 0.00 0.00 0.00 56 1016.8
20221209080026 60 186 5.0 10.0 0.00 0.00 0.00 55 1016.7
20221209074529 61 138 4.0 12.0 0.00 0.00 0.00 54 1016.6
20221209073026 62 149 5.0 10.0 0.00 0.00 0.00 53 1016.6
20221209071533 62 141 7.0 12.0 0.00 0.00 0.00 52 1016.3
20221209070030 62 136 5.0 14.0 0.00 0.00 0.00 51 1016.3
20221209064535 63 121 6.0 14.0 0.00 0.00 0.00 51 1016.2
20221209063022 63 125 5.0 11.0 0.00 0.00 0.00 49 1016.5
20221209061522 64 149 8.0 12.0 0.00 0.00 0.00 48 1016.6
20221209060043 64 130 3.0 12.0 0.00 0.00 0.00 48 1016.6
20221209054531 64 159 6.0 14.0 0.00 0.00 0.00 47 1016.8
20221209053040 64 140 6.0 18.0 0.00 0.00 0.00 47 1016.9
20221209051528 64 138 7.0 16.0 0.00 0.00 0.00 46 1017.0
20221209050028 65 138 7.0 17.0 0.00 0.00 0.00 44 1017.1
20221209044526 65 201 5.0 14.0 0.00 0.00 0.00 44 1017.1